createdAt,value
2023-04-02T00:00:18.697Z,96083.28
2023-04-02T00:01:23.221Z,96078.50
2023-04-02T00:02:25.064Z,96079.50
2023-04-02T00:03:54.206Z,96082.91
2023-04-02T00:05:16.797Z,96087.47
2023-04-02T00:06:33.222Z,96087.28
2023-04-02T00:07:38.591Z,96085.72
2023-04-02T00:08:41.321Z,96090.31
2023-04-02T00:09:43.249Z,96084.09
2023-04-02T00:10:48.182Z,96079.50
2023-04-02T00:11:51.021Z,96077.28
2023-04-02T00:13:05.059Z,96079.09
2023-04-02T00:14:15.949Z,96087.94
2023-04-02T00:15:17.787Z,96082.72
2023-04-02T00:16:22.604Z,96080.50
2023-04-02T00:17:25.107Z,96083.91
2023-04-02T00:18:27.823Z,96074.72
2023-04-02T00:19:37.898Z,96082.34
2023-04-02T00:20:42.268Z,96087.53
2023-04-02T00:21:45.422Z,96084.56
2023-04-02T00:22:49.344Z,96086.78
2023-04-02T00:23:51.239Z,96082.19
2023-04-02T00:24:54.478Z,96079.22
2023-04-02T00:25:56.258Z,96081.59
2023-04-02T00:26:58.224Z,96082.03
2023-04-02T00:28:00.467Z,96088.63
2023-04-02T00:29:02.911Z,96083.63
2023-04-02T00:30:04.958Z,96082.06
2023-04-02T00:31:10.864Z,96084.06
2023-04-02T00:32:18.034Z,96089.25
2023-04-02T00:33:21.596Z,96090.47
2023-04-02T00:34:29.471Z,96090.47
2023-04-02T00:35:31.343Z,96086.66
2023-04-02T00:36:37.177Z,96085.25
2023-04-02T00:37:39.474Z,96085.06
2023-04-02T00:38:44.295Z,96085.66
2023-04-02T00:39:46.733Z,96083.44
2023-04-02T00:40:49.959Z,96087.41
2023-04-02T00:42:05.139Z,96094.03
2023-04-02T00:43:08.311Z,96089.25
2023-04-02T00:44:12.460Z,96084.06
2023-04-02T00:45:18.994Z,96093.84
2023-04-02T00:46:24.568Z,96095.03
2023-04-02T00:47:32.053Z,96092.44
2023-04-02T00:48:33.788Z,96092.09
2023-04-02T00:49:37.374Z,96087.69
2023-04-02T00:50:43.930Z,96092.06
2023-04-02T00:51:51.805Z,96095.03
2023-04-02T00:52:54.107Z,96094.41
2023-04-02T00:53:58.278Z,96097.81
2023-04-02T00:55:05.151Z,96098.41
2023-04-02T00:56:13.278Z,96092.81
2023-04-02T00:57:18.574Z,96098.19
2023-04-02T00:58:27.980Z,96098.22
2023-04-02T00:59:34.520Z,96101.03
2023-04-02T01:00:36.825Z,96095.44
2023-04-02T01:01:42.801Z,96094.44
2023-04-02T01:03:05.097Z,96092.88
2023-04-02T01:04:26.431Z,96095.69
2023-04-02T01:05:34.629Z,96090.56
2023-04-02T01:06:38.723Z,96092.56
2023-04-02T01:07:56.250Z,96093.75
2023-04-02T01:09:10.569Z,96092.72
2023-04-02T01:10:24.635Z,96082.13
2023-04-02T01:11:46.759Z,96086.50
2023-04-02T01:12:57.755Z,96081.50
2023-04-02T01:14:02.610Z,96080.09
2023-04-02T01:15:13.647Z,96082.88
2023-04-02T01:16:29.868Z,96074.25
2023-04-02T01:17:37.468Z,96074.69
2023-04-02T01:18:57.588Z,96087.69
2023-04-02T01:20:18.199Z,96086.50
2023-04-02T01:21:38.357Z,96079.28
2023-04-02T01:22:55.197Z,96083.31
2023-04-02T01:24:02.106Z,96084.09
2023-04-02T01:25:06.696Z,96081.69
2023-04-02T01:26:21.047Z,96093.09
2023-04-02T01:27:26.420Z,96086.88
2023-04-02T01:28:51.851Z,96095.69
2023-04-02T01:29:57.247Z,96087.13
2023-04-02T01:31:01.862Z,96090.94
2023-04-02T01:32:09.580Z,96092.53
2023-04-02T01:33:12.480Z,96096.13
2023-04-02T01:34:17.213Z,96091.75
2023-04-02T01:35:19.438Z,96092.72
2023-04-02T01:36:28.141Z,96088.56
2023-04-02T01:37:36.997Z,96087.34
2023-04-02T01:38:46.590Z,96091.13
2023-04-02T01:39:48.321Z,96092.34
2023-04-02T01:40:54.488Z,96089.75
2023-04-02T01:41:59.341Z,96096.13
2023-04-02T01:43:13.337Z,96090.94
2023-04-02T01:44:35.344Z,96094.72
2023-04-02T01:45:37.369Z,96098.94
2023-04-02T01:46:41.643Z,96098.31
2023-04-02T01:47:44.184Z,96098.28
2023-04-02T01:48:46.101Z,96099.28
2023-04-02T01:49:48.194Z,96095.28
2023-04-02T01:50:51.631Z,96097.69
2023-04-02T01:51:56.730Z,96097.28
2023-04-02T01:53:03.058Z,96098.66
2023-04-02T01:54:06.338Z,96102.63
2023-04-02T01:55:15.517Z,96102.25
2023-04-02T01:56:18.188Z,96102.03
2023-04-02T01:57:20.101Z,96100.00
2023-04-02T01:58:26.738Z,96100.41
2023-04-02T01:59:29.249Z,96101.19
2023-04-02T02:00:32.705Z,96108.59
2023-04-02T02:01:45.949Z,96108.78
2023-04-02T02:02:49.216Z,96117.25
2023-04-02T02:03:51.896Z,96106.84
2023-04-02T02:04:54.248Z,96116.84
2023-04-02T02:05:56.979Z,96112.44
2023-04-02T02:07:01.048Z,96117.25
2023-04-02T02:08:03.026Z,96117.59
2023-04-02T02:09:06.655Z,96112.81
2023-04-02T02:10:14.592Z,96117.59
2023-04-02T02:11:21.917Z,96127.56
2023-04-02T02:12:23.758Z,96117.19
2023-04-02T02:13:25.691Z,96116.38
2023-04-02T02:14:28.779Z,96115.59
2023-04-02T02:15:34.357Z,96121.19
2023-04-02T02:16:42.178Z,96125.00
2023-04-02T02:17:45.296Z,96122.81
2023-04-02T02:18:50.198Z,96124.81
2023-04-02T02:19:55.192Z,96121.78
2023-04-02T02:20:59.312Z,96123.16
2023-04-02T02:22:21.524Z,96115.00
2023-04-02T02:23:23.966Z,96121.00
2023-04-02T02:24:27.934Z,96123.97
2023-04-02T02:25:32.887Z,96128.94
2023-04-02T02:26:36.450Z,96123.75
2023-04-02T02:27:44.735Z,96133.16
2023-04-02T02:28:49.815Z,96131.56
2023-04-02T02:30:03.051Z,96129.19
2023-04-02T02:31:13.151Z,96129.78
2023-04-02T02:32:17.074Z,96125.56
2023-04-02T02:33:25.753Z,96127.56
2023-04-02T02:34:33.380Z,96129.19
2023-04-02T02:35:49.824Z,96125.75
2023-04-02T02:37:02.674Z,96132.78
2023-04-02T02:38:13.361Z,96130.97
2023-04-02T02:39:15.075Z,96136.75
2023-04-02T02:40:21.167Z,96134.75
2023-04-02T02:41:22.970Z,96131.16
2023-04-02T02:42:33.987Z,96132.16
2023-04-02T02:43:38.408Z,96134.97
2023-04-02T02:44:43.007Z,96136.56
2023-04-02T02:45:47.477Z,96131.94
2023-04-02T02:46:54.003Z,96131.94
2023-04-02T02:47:56.554Z,96135.97
2023-04-02T02:48:59.349Z,96128.19
2023-04-02T02:50:03.874Z,96125.19
2023-04-02T02:51:09.483Z,96127.00
2023-04-02T02:52:17.502Z,96134.38
2023-04-02T02:53:23.524Z,96141.97
2023-04-02T02:54:26.892Z,96143.59
2023-04-02T02:55:34.818Z,96134.41
2023-04-02T02:56:41.458Z,96141.22
2023-04-02T02:57:54.699Z,96133.25
2023-04-02T02:58:56.639Z,96141.63
2023-04-02T02:59:59.830Z,96135.44
2023-04-02T03:01:01.983Z,96136.03
2023-04-02T03:02:05.268Z,96137.66
2023-04-02T03:03:12.857Z,96138.44
2023-04-02T03:04:21.221Z,96144.84
2023-04-02T03:05:25.299Z,96147.66
2023-04-02T03:06:27.180Z,96141.66
2023-04-02T03:07:31.135Z,96145.44
2023-04-02T03:08:40.586Z,96147.63
2023-04-02T03:09:47.443Z,96141.66
2023-04-02T03:10:54.365Z,96150.03
2023-04-02T03:12:16.353Z,96147.63
2023-04-02T03:13:47.547Z,96135.25
2023-04-02T03:14:54.962Z,96133.84
2023-04-02T03:16:07.500Z,96143.84
2023-04-02T03:17:26.941Z,96152.03
2023-04-02T03:18:40.961Z,96146.03
2023-04-02T03:19:42.828Z,96159.63
2023-04-02T03:20:49.213Z,96145.41
2023-04-02T03:22:05.015Z,96152.00
2023-04-02T03:23:17.874Z,96144.19
2023-04-02T03:24:28.218Z,96143.00
2023-04-02T03:25:37.385Z,96135.25
2023-04-02T03:26:55.619Z,96137.06
2023-04-02T03:28:02.006Z,96141.25
2023-04-02T03:29:16.931Z,96149.63
2023-04-02T03:30:27.068Z,96144.84
2023-04-02T03:31:48.889Z,96141.06
2023-04-02T03:32:54.715Z,96140.47
2023-04-02T03:33:58.774Z,96148.06
2023-04-02T03:35:03.585Z,96142.47
2023-04-02T03:36:26.082Z,96147.03
2023-04-02T03:37:44.154Z,96149.25
2023-04-02T03:38:52.191Z,96138.84
2023-04-02T03:40:00.192Z,96147.03
2023-04-02T03:41:06.230Z,96143.44
2023-04-02T03:42:07.883Z,96146.66
2023-04-02T03:43:16.136Z,96143.63
2023-04-02T03:44:29.129Z,96145.84
2023-04-02T03:45:40.798Z,96154.41
2023-04-02T03:46:46.765Z,96153.22
2023-04-02T03:47:55.058Z,96152.81
2023-04-02T03:49:03.684Z,96148.81
2023-04-02T03:50:05.387Z,96145.81
2023-04-02T03:51:10.815Z,96140.81
2023-04-02T03:52:14.526Z,96141.81
2023-04-02T03:53:16.483Z,96134.81
2023-04-02T03:54:18.372Z,96139.81
2023-04-02T03:55:24.829Z,96144.03
2023-04-02T03:56:40.177Z,96150.84
2023-04-02T03:58:00.720Z,96149.63
2023-04-02T03:59:17.865Z,96146.81
2023-04-02T04:00:19.610Z,96146.84
2023-04-02T04:01:26.653Z,96146.84
2023-04-02T04:02:44.536Z,96154.66
2023-04-02T04:03:50.210Z,96160.03
2023-04-02T04:04:53.871Z,96162.44
2023-04-02T04:05:55.546Z,96160.44
2023-04-02T04:06:58.753Z,96152.66
2023-04-02T04:08:03.085Z,96147.25
2023-04-02T04:09:07.914Z,96153.84
2023-04-02T04:10:17.301Z,96150.44
2023-04-02T04:11:22.955Z,96153.63
2023-04-02T04:12:28.666Z,96150.44
2023-04-02T04:13:35.315Z,96148.66
2023-04-02T04:14:42.282Z,96152.84
2023-04-02T04:15:58.235Z,96162.03
2023-04-02T04:17:04.749Z,96160.06
2023-04-02T04:18:19.470Z,96167.25
2023-04-02T04:19:32.785Z,96159.25
2023-04-02T04:20:34.505Z,96163.44
2023-04-02T04:21:38.830Z,96166.25
2023-04-02T04:22:41.055Z,96168.84
2023-04-02T04:23:50.660Z,96175.63
2023-04-02T04:24:53.451Z,96172.22
2023-04-02T04:26:09.896Z,96169.03
2023-04-02T04:27:33.971Z,96171.22
2023-04-02T04:28:58.857Z,96180.03
2023-04-02T04:30:06.242Z,96182.59
2023-04-02T04:31:18.243Z,96188.00
2023-04-02T04:32:33.876Z,96182.81
2023-04-02T04:33:42.086Z,96185.00
2023-04-02T04:34:53.732Z,96192.00
2023-04-02T04:36:00.450Z,96192.81
2023-04-02T04:37:08.044Z,96190.59
2023-04-02T04:38:15.976Z,96188.59
2023-04-02T04:39:30.085Z,96189.59
2023-04-02T04:40:36.417Z,96190.81
2023-04-02T04:41:39.450Z,96203.00
2023-04-02T04:42:43.010Z,96208.00
2023-04-02T04:43:55.148Z,96206.00
2023-04-02T04:45:00.182Z,96208.97
2023-04-02T04:46:08.706Z,96205.97
2023-04-02T04:47:31.223Z,96210.75
2023-04-02T04:48:49.129Z,96214.97
2023-04-02T04:50:04.017Z,96217.97
2023-04-02T04:51:08.954Z,96223.75
2023-04-02T04:52:22.563Z,96220.34
2023-04-02T04:53:26.118Z,96223.75
2023-04-02T04:54:29.047Z,96223.16
2023-04-02T04:55:35.808Z,96220.34
2023-04-02T04:56:37.901Z,96227.16
2023-04-02T04:57:42.322Z,96221.94
2023-04-02T04:58:50.566Z,96220.16
2023-04-02T05:00:07.097Z,96221.56
2023-04-02T05:01:18.117Z,96216.19
2023-04-02T05:02:24.090Z,96222.16
2023-04-02T05:03:26.023Z,96224.34
2023-04-02T05:04:28.021Z,96213.56
2023-04-02T05:05:31.399Z,96219.16
2023-04-02T05:06:39.561Z,96223.97
2023-04-02T05:07:47.167Z,96217.94
2023-04-02T05:08:50.982Z,96227.34
2023-04-02T05:10:01.687Z,96226.56
2023-04-02T05:11:13.609Z,96227.16
2023-04-02T05:12:33.319Z,96224.34
2023-04-02T05:13:54.056Z,96226.75
2023-04-02T05:15:02.032Z,96236.13
2023-04-02T05:16:03.785Z,96237.75
2023-04-02T05:17:11.076Z,96243.31
2023-04-02T05:18:27.830Z,96236.53
2023-04-02T05:19:34.775Z,96241.72
2023-04-02T05:20:42.149Z,96242.72
2023-04-02T05:21:49.362Z,96238.13
2023-04-02T05:22:54.920Z,96231.53
2023-04-02T05:24:03.346Z,96242.75
2023-04-02T05:25:25.257Z,96237.75
2023-04-02T05:26:31.635Z,96242.53
2023-04-02T05:27:33.377Z,96244.34
2023-04-02T05:28:39.651Z,96239.53
2023-04-02T05:29:43.487Z,96234.31
2023-04-02T05:30:53.100Z,96238.34
2023-04-02T05:31:58.423Z,96241.72
2023-04-02T05:33:00.236Z,96246.72
2023-04-02T05:34:02.722Z,96243.72
2023-04-02T05:35:06.858Z,96247.72
2023-04-02T05:36:11.859Z,96245.94
2023-04-02T05:37:18.098Z,96248.91
2023-04-02T05:38:22.097Z,96240.91
2023-04-02T05:39:25.087Z,96238.31
2023-04-02T05:40:31.365Z,96245.50
2023-04-02T05:41:37.250Z,96250.31
2023-04-02T05:42:41.738Z,96244.94
2023-04-02T05:43:46.253Z,96241.13
2023-04-02T05:45:06.575Z,96255.13
2023-04-02T05:46:15.642Z,96255.50
2023-04-02T05:47:23.361Z,96249.91
2023-04-02T05:48:35.102Z,96246.72
2023-04-02T05:50:00.357Z,96246.13
2023-04-02T05:51:05.070Z,96244.53
2023-04-02T05:52:08.809Z,96242.94
2023-04-02T05:53:15.193Z,96245.94
2023-04-02T05:54:23.626Z,96245.31
2023-04-02T05:55:35.658Z,96250.69
2023-04-02T05:56:41.496Z,96253.31
2023-04-02T05:58:01.253Z,96252.91
2023-04-02T05:59:16.373Z,96252.31
2023-04-02T06:00:22.130Z,96251.72
2023-04-02T06:01:33.855Z,96246.91
2023-04-02T06:02:37.610Z,96252.53
2023-04-02T06:03:55.870Z,96251.91
2023-04-02T06:05:12.343Z,96250.72
2023-04-02T06:06:16.722Z,96259.91
2023-04-02T06:07:18.550Z,96263.91
2023-04-02T06:08:52.981Z,96265.09
2023-04-02T06:09:58.527Z,96261.50
2023-04-02T06:11:02.885Z,96261.28
2023-04-02T06:12:11.453Z,96260.13
2023-04-02T06:13:16.655Z,96265.50
2023-04-02T06:14:18.657Z,96268.47
2023-04-02T06:15:22.071Z,96266.91
2023-04-02T06:16:26.847Z,96265.50
2023-04-02T06:17:29.094Z,96260.31
2023-04-02T06:18:33.811Z,96270.88
2023-04-02T06:19:37.844Z,96262.09
2023-04-02T06:20:39.733Z,96265.31
2023-04-02T06:21:50.127Z,96266.28
2023-04-02T06:22:55.151Z,96264.28
2023-04-02T06:24:02.757Z,96271.88
2023-04-02T06:25:18.050Z,96268.50
2023-04-02T06:26:41.263Z,96262.72
2023-04-02T06:27:45.356Z,96268.09
2023-04-02T06:29:07.476Z,96277.06
2023-04-02T06:30:16.680Z,96272.69
2023-04-02T06:31:24.382Z,96270.09
2023-04-02T06:32:27.442Z,96265.09
2023-04-02T06:33:29.262Z,96271.88
2023-04-02T06:34:32.287Z,96271.47
2023-04-02T06:35:35.854Z,96266.47
2023-04-02T06:36:37.986Z,96261.28
2023-04-02T06:37:42.006Z,96257.47
2023-04-02T06:38:44.257Z,96254.28
2023-04-02T06:39:46.306Z,96266.88
2023-04-02T06:40:51.224Z,96259.47
2023-04-02T06:42:05.008Z,96272.28
2023-04-02T06:43:12.425Z,96280.69
2023-04-02T06:44:20.045Z,96279.88
2023-04-02T06:45:27.042Z,96279.69
2023-04-02T06:46:32.846Z,96278.47
2023-04-02T06:47:37.955Z,96277.88
2023-04-02T06:48:42.603Z,96270.88
2023-04-02T06:49:51.509Z,96275.28
2023-04-02T06:50:57.170Z,96265.88
2023-04-02T06:52:01.587Z,96279.03
2023-04-02T06:53:06.846Z,96275.03
2023-04-02T06:54:13.600Z,96273.03
2023-04-02T06:55:21.296Z,96282.25
2023-04-02T06:56:43.761Z,96290.25
2023-04-02T06:57:45.689Z,96278.44
2023-04-02T06:58:47.549Z,96279.81
2023-04-02T06:59:49.667Z,96283.25
2023-04-02T07:00:51.619Z,96284.81
2023-04-02T07:01:57.484Z,96283.03
2023-04-02T07:03:01.493Z,96281.25
2023-04-02T07:04:03.427Z,96282.03
2023-04-02T07:05:09.348Z,96289.03
2023-04-02T07:06:15.846Z,96286.25
2023-04-02T07:07:17.640Z,96289.63
2023-04-02T07:08:19.492Z,96297.25
2023-04-02T07:09:21.450Z,96294.03
2023-04-02T07:10:23.206Z,96287.81
2023-04-02T07:11:25.089Z,96293.41
2023-04-02T07:12:26.966Z,96295.41
2023-04-02T07:13:28.807Z,96297.00
2023-04-02T07:14:30.597Z,96296.00
2023-04-02T07:15:32.469Z,96297.59
2023-04-02T07:16:36.887Z,96296.78
2023-04-02T07:17:38.672Z,96300.22
2023-04-02T07:18:40.605Z,96300.22
2023-04-02T07:19:44.585Z,96308.00
2023-04-02T07:20:46.728Z,96298.19
2023-04-02T07:21:48.647Z,96304.38
2023-04-02T07:22:50.439Z,96312.19
2023-04-02T07:23:52.413Z,96311.59
2023-04-02T07:24:54.190Z,96310.38
2023-04-02T07:25:57.226Z,96311.81
2023-04-02T07:26:58.986Z,96304.59
2023-04-02T07:28:01.831Z,96299.59
2023-04-02T07:29:06.713Z,96307.78
2023-04-02T07:30:08.866Z,96317.78
2023-04-02T07:31:16.891Z,96307.00
2023-04-02T07:32:19.745Z,96312.19
2023-04-02T07:33:23.515Z,96317.81
2023-04-02T07:34:25.223Z,96316.81
2023-04-02T07:35:27.161Z,96311.22
2023-04-02T07:36:29.721Z,96313.19
2023-04-02T07:37:32.188Z,96323.75
2023-04-02T07:38:33.929Z,96322.56
2023-04-02T07:39:37.832Z,96328.38
2023-04-02T07:40:40.806Z,96323.34
2023-04-02T07:41:56.803Z,96323.13
2023-04-02T07:42:58.621Z,96333.75
2023-04-02T07:44:00.510Z,96325.53
2023-04-02T07:45:04.633Z,96330.31
2023-04-02T07:46:08.490Z,96329.31
2023-04-02T07:47:10.895Z,96332.53
2023-04-02T07:48:13.954Z,96338.72
2023-04-02T07:49:15.685Z,96339.72
2023-04-02T07:50:18.120Z,96342.34
2023-04-02T07:51:21.529Z,96341.53
2023-04-02T07:52:23.368Z,96341.75
2023-04-02T07:53:32.890Z,96341.31
2023-04-02T07:54:36.057Z,96336.31
2023-04-02T07:55:38.233Z,96338.47
2023-04-02T07:56:40.237Z,96339.06
2023-04-02T07:57:48.915Z,96343.09
2023-04-02T07:58:50.810Z,96344.88
2023-04-02T07:59:53.533Z,96345.91
2023-04-02T08:00:55.319Z,96349.09
2023-04-02T08:01:57.828Z,96349.88
2023-04-02T08:02:59.753Z,96347.69
2023-04-02T08:04:02.936Z,96355.88
2023-04-02T08:05:05.002Z,96356.47
2023-04-02T08:06:06.871Z,96358.06
2023-04-02T08:07:08.710Z,96355.44
2023-04-02T08:08:10.647Z,96352.47
2023-04-02T08:09:12.436Z,96365.91
2023-04-02T08:10:14.209Z,96359.66
2023-04-02T08:11:16.346Z,96362.06
2023-04-02T08:12:18.110Z,96364.88
2023-04-02T08:13:19.921Z,96361.09
2023-04-02T08:14:22.016Z,96368.25
2023-04-02T08:15:23.833Z,96363.44
2023-04-02T08:16:25.904Z,96361.25
2023-04-02T08:17:31.634Z,96356.03
2023-04-02T08:18:34.214Z,96360.81
2023-04-02T08:19:47.800Z,96360.59
2023-04-02T08:20:56.224Z,96365.63
2023-04-02T08:21:58.022Z,96374.84
2023-04-02T08:23:01.250Z,96369.44
2023-04-02T08:24:04.475Z,96365.84
2023-04-02T08:25:06.737Z,96368.03
2023-04-02T08:26:08.561Z,96370.44
2023-04-02T08:27:14.922Z,96372.84
2023-04-02T08:28:16.985Z,96373.19
2023-04-02T08:29:18.783Z,96377.63
2023-04-02T08:30:20.958Z,96380.66
2023-04-02T08:31:23.747Z,96381.63
2023-04-02T08:32:26.697Z,96385.66
2023-04-02T08:33:28.471Z,96383.47
2023-04-02T08:34:30.277Z,96386.69
2023-04-02T08:35:32.667Z,96387.28
2023-04-02T08:36:35.355Z,96379.22
2023-04-02T08:37:37.476Z,96378.88
2023-04-02T08:38:39.291Z,96396.50
2023-04-02T08:39:41.406Z,96380.13
2023-04-02T08:40:45.718Z,96384.50
2023-04-02T08:41:51.942Z,96391.31
2023-04-02T08:43:15.148Z,96388.72
2023-04-02T08:44:19.773Z,96389.91
2023-04-02T08:45:25.740Z,96388.69
2023-04-02T08:46:48.629Z,96388.50
2023-04-02T08:47:51.728Z,96394.88
2023-04-02T08:48:55.770Z,96396.31
2023-04-02T08:50:03.143Z,96407.13
2023-04-02T08:51:06.469Z,96394.50
2023-04-02T08:52:37.444Z,96401.72
2023-04-02T08:53:40.131Z,96408.28
2023-04-02T08:54:43.883Z,96404.69
2023-04-02T08:56:05.962Z,96410.47
2023-04-02T08:57:18.648Z,96397.06
2023-04-02T08:58:20.569Z,96412.47
2023-04-02T08:59:36.442Z,96405.66
2023-04-02T09:00:42.973Z,96409.44
2023-04-02T09:01:53.312Z,96408.06
2023-04-02T09:03:03.276Z,96411.88
2023-04-02T09:04:07.340Z,96410.88
2023-04-02T09:05:17.291Z,96401.47
2023-04-02T09:06:20.045Z,96407.09
2023-04-02T09:07:22.024Z,96410.28
2023-04-02T09:08:25.852Z,96408.88
2023-04-02T09:09:28.170Z,96406.91
2023-04-02T09:10:37.685Z,96408.50
2023-04-02T09:11:49.641Z,96411.88
2023-04-02T09:12:54.360Z,96408.34
2023-04-02T09:14:02.021Z,96415.31
2023-04-02T09:15:23.775Z,96415.53
2023-04-02T09:16:38.677Z,96411.94
2023-04-02T09:17:53.121Z,96418.16
2023-04-02T09:18:55.396Z,96420.75
2023-04-02T09:20:19.184Z,96415.91
2023-04-02T09:21:21.184Z,96418.75
2023-04-02T09:22:27.359Z,96420.91
2023-04-02T09:23:31.821Z,96413.50
2023-04-02T09:24:34.185Z,96420.09
2023-04-02T09:25:36.117Z,96421.28
2023-04-02T09:26:38.130Z,96417.25
2023-04-02T09:27:39.909Z,96416.88
2023-04-02T09:28:42.002Z,96423.66
2023-04-02T09:29:45.395Z,96425.28
2023-04-02T09:30:47.143Z,96424.25
2023-04-02T09:31:55.653Z,96425.28
2023-04-02T09:32:58.950Z,96427.09
2023-04-02T09:34:00.877Z,96427.69
2023-04-02T09:35:15.113Z,96422.88
2023-04-02T09:36:34.139Z,96429.25
2023-04-02T09:37:37.593Z,96429.25
2023-04-02T09:38:39.425Z,96434.28
2023-04-02T09:39:41.376Z,96436.66
2023-04-02T09:41:03.923Z,96435.44
2023-04-02T09:42:28.243Z,96437.25
2023-04-02T09:43:31.963Z,96439.25
2023-04-02T09:44:34.058Z,96448.28
2023-04-02T09:45:36.291Z,96434.44
2023-04-02T09:46:38.370Z,96438.03
2023-04-02T09:47:42.310Z,96442.84
2023-04-02T09:48:53.722Z,96435.19
2023-04-02T09:49:55.831Z,96440.19
2023-04-02T09:51:16.601Z,96442.00
2023-04-02T09:52:26.417Z,96437.97
2023-04-02T09:53:30.218Z,96441.16
2023-04-02T09:54:31.998Z,96446.16
2023-04-02T09:55:35.111Z,96452.78
2023-04-02T09:56:38.539Z,96449.56
2023-04-02T09:57:40.343Z,96441.53
2023-04-02T09:58:42.730Z,96441.53
2023-04-02T09:59:44.641Z,96447.91
2023-04-02T10:00:51.140Z,96444.31
2023-04-02T10:01:56.127Z,96439.53
2023-04-02T10:03:03.501Z,96443.09
2023-04-02T10:04:06.823Z,96439.47
2023-04-02T10:05:26.723Z,96448.84
2023-04-02T10:06:49.119Z,96447.81
2023-04-02T10:07:53.278Z,96448.53
2023-04-02T10:08:55.619Z,96453.34
2023-04-02T10:09:58.330Z,96452.56
2023-04-02T10:11:02.114Z,96446.78
2023-04-02T10:12:06.120Z,96440.56
2023-04-02T10:13:09.849Z,96440.56
2023-04-02T10:14:21.947Z,96444.97
2023-04-02T10:15:28.345Z,96442.53
2023-04-02T10:16:33.872Z,96444.94
2023-04-02T10:17:38.396Z,96454.34
2023-04-02T10:18:46.106Z,96452.56
2023-04-02T10:19:51.400Z,96458.19
2023-04-02T10:20:54.777Z,96453.75
2023-04-02T10:21:58.386Z,96448.16
2023-04-02T10:23:00.397Z,96447.38
2023-04-02T10:24:03.262Z,96454.41
2023-04-02T10:25:13.224Z,96451.78
2023-04-02T10:26:27.600Z,96450.56
2023-04-02T10:27:45.516Z,96454.81
2023-04-02T10:29:06.961Z,96460.41
2023-04-02T10:30:16.549Z,96460.59
2023-04-02T10:31:25.602Z,96457.53
2023-04-02T10:32:38.886Z,96456.56
2023-04-02T10:33:42.769Z,96458.97
2023-04-02T10:34:53.141Z,96448.72
2023-04-02T10:36:03.784Z,96457.53
2023-04-02T10:37:28.687Z,96454.16
2023-04-02T10:38:49.179Z,96464.38
2023-04-02T10:39:54.079Z,96454.16
2023-04-02T10:41:14.685Z,96458.13
2023-04-02T10:42:28.619Z,96462.94
2023-04-02T10:43:39.778Z,96463.34
2023-04-02T10:44:41.645Z,96460.16
2023-04-02T10:46:07.004Z,96469.00
2023-04-02T10:47:27.674Z,96467.00
2023-04-02T10:48:29.521Z,96465.22
2023-04-02T10:49:42.797Z,96476.63
2023-04-02T10:50:45.130Z,96470.03
2023-04-02T10:51:46.943Z,96468.66
2023-04-02T10:52:57.782Z,96465.03
2023-04-02T10:54:08.057Z,96473.69
2023-04-02T10:55:22.474Z,96479.69
2023-04-02T10:56:26.502Z,96475.31
2023-04-02T10:57:38.396Z,96474.66
2023-04-02T10:58:45.909Z,96475.06
2023-04-02T10:59:52.727Z,96476.22
2023-04-02T11:00:57.106Z,96485.47
2023-04-02T11:02:00.702Z,96480.66
2023-04-02T11:03:07.474Z,96484.50
2023-04-02T11:04:17.644Z,96482.53
2023-04-02T11:05:23.866Z,96482.72
2023-04-02T11:06:38.367Z,96490.75
2023-04-02T11:07:51.017Z,96489.16
2023-04-02T11:08:56.753Z,96491.78
2023-04-02T11:09:59.463Z,96490.34
2023-04-02T11:11:08.281Z,96487.97
2023-04-02T11:12:18.506Z,96489.19
2023-04-02T11:13:26.765Z,96493.00
2023-04-02T11:14:29.652Z,96492.84
2023-04-02T11:15:31.941Z,96489.63
2023-04-02T11:16:35.133Z,96498.06
2023-04-02T11:17:38.845Z,96503.28
2023-04-02T11:18:40.821Z,96501.84
2023-04-02T11:19:44.418Z,96499.03
2023-04-02T11:20:49.283Z,96501.06
2023-04-02T11:21:58.625Z,96504.06
2023-04-02T11:23:12.145Z,96501.28
2023-04-02T11:24:24.433Z,96504.53
2023-04-02T11:25:26.289Z,96508.31
2023-04-02T11:26:29.968Z,96510.75
2023-04-02T11:27:33.220Z,96505.94
2023-04-02T11:28:35.092Z,96509.56
2023-04-02T11:29:42.752Z,96511.81
2023-04-02T11:30:47.468Z,96512.59
2023-04-02T11:31:51.457Z,96519.97
2023-04-02T11:32:53.415Z,96511.97
2023-04-02T11:33:55.305Z,96513.97
2023-04-02T11:35:20.023Z,96517.00
2023-04-02T11:36:40.879Z,96511.22
2023-04-02T11:37:45.114Z,96521.03
2023-04-02T11:38:47.113Z,96520.59
2023-04-02T11:39:57.132Z,96516.78
2023-04-02T11:40:59.569Z,96513.00
2023-04-02T11:42:05.978Z,96512.78
2023-04-02T11:43:41.748Z,96513.22
2023-04-02T11:44:43.611Z,96516.00
2023-04-02T11:45:52.879Z,96512.22
2023-04-02T11:47:14.959Z,96521.41
2023-04-02T11:48:16.953Z,96528.41
2023-04-02T11:49:38.308Z,96520.59
2023-04-02T11:50:43.816Z,96521.41
2023-04-02T11:51:45.877Z,96529.38
2023-04-02T11:52:47.736Z,96526.19
2023-04-02T11:53:50.405Z,96532.19
2023-04-02T11:55:04.147Z,96527.97
2023-04-02T11:56:18.386Z,96535.38
2023-04-02T11:57:28.551Z,96528.38
2023-04-02T11:58:30.820Z,96532.78
2023-04-02T11:59:44.757Z,96530.56
2023-04-02T12:00:47.039Z,96530.56
2023-04-02T12:02:04.539Z,96532.19
2023-04-02T12:03:09.356Z,96533.78
2023-04-02T12:04:28.283Z,96536.38
2023-04-02T12:05:43.569Z,96535.59
2023-04-02T12:07:18.148Z,96532.22
2023-04-02T12:08:22.903Z,96535.41
2023-04-02T12:09:28.918Z,96536.44
2023-04-02T12:10:49.127Z,96527.00
2023-04-02T12:11:52.309Z,96529.00
2023-04-02T12:12:54.376Z,96535.03
2023-04-02T12:13:58.806Z,96538.84
2023-04-02T12:15:01.124Z,96540.81
2023-04-02T12:16:03.415Z,96545.00
2023-04-02T12:17:14.382Z,96543.22
2023-04-02T12:18:25.808Z,96543.59
2023-04-02T12:19:28.157Z,96542.19
2023-04-02T12:20:31.399Z,96541.00
2023-04-02T12:21:33.304Z,96546.22
2023-04-02T12:22:47.749Z,96540.78
2023-04-02T12:23:52.096Z,96542.38
2023-04-02T12:25:00.009Z,96542.19
2023-04-02T12:26:09.273Z,96550.59
2023-04-02T12:27:17.266Z,96542.19
2023-04-02T12:28:20.203Z,96548.00
2023-04-02T12:29:26.875Z,96553.00
2023-04-02T12:30:29.367Z,96550.59
2023-04-02T12:31:33.790Z,96553.78
2023-04-02T12:32:36.169Z,96546.56
2023-04-02T12:33:43.135Z,96553.78
2023-04-02T12:34:46.657Z,96553.78
2023-04-02T12:35:51.057Z,96554.41
2023-04-02T12:36:54.463Z,96558.25
2023-04-02T12:37:57.409Z,96556.84
2023-04-02T12:38:59.443Z,96554.44
2023-04-02T12:40:07.450Z,96553.03
2023-04-02T12:41:30.562Z,96561.63
2023-04-02T12:42:33.580Z,96562.06
2023-04-02T12:43:37.987Z,96561.84
2023-04-02T12:44:48.689Z,96569.06
2023-04-02T12:45:58.568Z,96563.84
2023-04-02T12:47:00.678Z,96570.66
2023-04-02T12:48:05.135Z,96566.66
2023-04-02T12:49:07.082Z,96570.84
2023-04-02T12:50:15.322Z,96564.44
2023-04-02T12:51:17.666Z,96559.44
2023-04-02T12:52:21.516Z,96567.09
2023-04-02T12:53:29.700Z,96561.66
2023-04-02T12:54:36.055Z,96568.28
2023-04-02T12:55:38.590Z,96569.66
2023-04-02T12:56:40.529Z,96571.06
2023-04-02T12:57:42.803Z,96572.69
2023-04-02T12:58:52.561Z,96567.66
2023-04-02T12:59:55.467Z,96567.84
2023-04-02T13:01:18.685Z,96571.28
2023-04-02T13:02:20.474Z,96566.88
2023-04-02T13:03:22.877Z,96573.66
2023-04-02T13:04:24.920Z,96577.88
2023-04-02T13:05:38.319Z,96577.88
2023-04-02T13:06:41.473Z,96574.06
2023-04-02T13:07:47.586Z,96572.25
2023-04-02T13:08:49.495Z,96572.06